sensor_id;sensor_type;location;lat;lon;timestamp;pressure;altitude;pressure_sealevel;temperature;humidity
39301;BME280;25019;42.626;23.380;2023-04-06T00:01:31;94145.94;;;-1.54;92.71
39301;BME280;25019;42.626;23.380;2023-04-06T00:03:57;94153.13;;;-1.56;93.52
39301;BME280;25019;42.626;23.380;2023-04-06T00:06:23;94087.00;;;-2.00;93.23
39301;BME280;25019;42.626;23.380;2023-04-06T00:08:50;94124.56;;;-1.64;93.86
39301;BME280;25019;42.626;23.380;2023-04-06T00:11:16;94093.09;;;-1.92;93.52
39301;BME280;25019;42.626;23.380;2023-04-06T00:13:42;94017.50;;;-2.44;94.15
39301;BME280;25019;42.626;23.380;2023-04-06T00:16:08;94137.22;;;-1.61;93.95
39301;BME280;25019;42.626;23.380;2023-04-06T00:18:33;94082.44;;;-1.98;93.34
39301;BME280;25019;42.626;23.380;2023-04-06T00:20:59;94142.31;;;-1.53;92.97
39301;BME280;25019;42.626;23.380;2023-04-06T00:23:25;94073.66;;;-1.97;92.20
39301;BME280;25019;42.626;23.380;2023-04-06T00:25:50;94063.03;;;-1.95;92.09
39301;BME280;25019;42.626;23.380;2023-04-06T00:28:16;94120.69;;;-1.53;92.24
39301;BME280;25019;42.626;23.380;2023-04-06T00:30:42;94133.34;;;-1.50;92.56
39301;BME280;25019;42.626;23.380;2023-04-06T00:33:08;94130.03;;;-1.44;91.87
39301;BME280;25019;42.626;23.380;2023-04-06T00:35:34;94126.81;;;-1.46;92.30
39301;BME280;25019;42.626;23.380;2023-04-06T00:38:00;94127.78;;;-1.47;92.31
39301;BME280;25019;42.626;23.380;2023-04-06T00:40:26;94058.38;;;-2.00;92.80
39301;BME280;25019;42.626;23.380;2023-04-06T00:42:54;94104.06;;;-1.67;93.00
39301;BME280;25019;42.626;23.380;2023-04-06T00:45:20;94131.66;;;-1.58;93.38
39301;BME280;25019;42.626;23.380;2023-04-06T00:47:46;94051.91;;;-2.04;93.67
39301;BME280;25019;42.626;23.380;2023-04-06T00:50:12;94128.41;;;-1.60;93.49
39301;BME280;25019;42.626;23.380;2023-04-06T00:52:37;94050.03;;;-2.10;93.95
39301;BME280;25019;42.626;23.380;2023-04-06T00:55:06;94123.22;;;-1.60;93.87
39301;BME280;25019;42.626;23.380;2023-04-06T00:57:37;94113.50;;;-1.66;94.23
39301;BME280;25019;42.626;23.380;2023-04-06T01:00:03;94130.19;;;-1.60;94.37
39301;BME280;25019;42.626;23.380;2023-04-06T01:02:30;94123.84;;;-1.58;94.07
39301;BME280;25019;42.626;23.380;2023-04-06T01:04:56;94123.03;;;-1.58;93.77
39301;BME280;25019;42.626;23.380;2023-04-06T01:07:45;94056.28;;;-2.04;94.62
39301;BME280;25019;42.626;23.380;2023-04-06T01:10:28;93998.31;;;-2.43;94.02
39301;BME280;25019;42.626;23.380;2023-04-06T01:13:07;94119.50;;;-1.66;95.06
39301;BME280;25019;42.626;23.380;2023-04-06T01:16:00;94115.56;;;-1.61;94.54
39301;BME280;25019;42.626;23.380;2023-04-06T01:18:32;94115.47;;;-1.53;94.78
39301;BME280;25019;42.626;23.380;2023-04-06T01:21:19;94109.47;;;-1.54;94.93
39301;BME280;25019;42.626;23.380;2023-04-06T01:24:04;94100.56;;;-1.59;95.13
39301;BME280;25019;42.626;23.380;2023-04-06T01:26:42;94115.22;;;-1.58;95.40
39301;BME280;25019;42.626;23.380;2023-04-06T01:29:09;94030.25;;;-2.19;95.84
39301;BME280;25019;42.626;23.380;2023-04-06T01:31:35;94097.06;;;-1.67;96.49
39301;BME280;25019;42.626;23.380;2023-04-06T01:34:01;94097.88;;;-1.66;96.26
39301;BME280;25019;42.626;23.380;2023-04-06T01:36:26;93951.47;;;-2.58;96.48
39301;BME280;25019;42.626;23.380;2023-04-06T01:39:01;94093.22;;;-1.71;97.16
39301;BME280;25019;42.626;23.380;2023-04-06T01:41:34;94091.97;;;-1.75;97.14
39301;BME280;25019;42.626;23.380;2023-04-06T01:44:01;94027.78;;;-2.13;96.99
39301;BME280;25019;42.626;23.380;2023-04-06T01:46:28;94086.75;;;-1.75;97.92
39301;BME280;25019;42.626;23.380;2023-04-06T01:48:54;94086.22;;;-1.70;97.73
39301;BME280;25019;42.626;23.380;2023-04-06T01:51:29;94083.78;;;-1.72;98.18
39301;BME280;25019;42.626;23.380;2023-04-06T01:53:58;94046.00;;;-1.98;97.56
39301;BME280;25019;42.626;23.380;2023-04-06T01:56:35;94081.34;;;-1.73;97.72
39301;BME280;25019;42.626;23.380;2023-04-06T01:59:11;94095.38;;;-1.74;97.70
39301;BME280;25019;42.626;23.380;2023-04-06T02:01:40;94083.59;;;-1.70;97.50
39301;BME280;25019;42.626;23.380;2023-04-06T02:04:06;94063.69;;;-1.78;97.39
39301;BME280;25019;42.626;23.380;2023-04-06T02:06:32;93989.25;;;-2.32;96.95
39301;BME280;25019;42.626;23.380;2023-04-06T02:08:58;94075.78;;;-1.70;98.14
39301;BME280;25019;42.626;23.380;2023-04-06T02:11:24;94029.00;;;-1.93;97.65
39301;BME280;25019;42.626;23.380;2023-04-06T02:13:54;94078.94;;;-1.60;97.56
39301;BME280;25019;42.626;23.380;2023-04-06T02:16:22;94085.28;;;-1.62;96.56
39301;BME280;25019;42.626;23.380;2023-04-06T02:18:49;94019.22;;;-1.91;97.05
39301;BME280;25019;42.626;23.380;2023-04-06T02:21:16;94069.16;;;-1.58;96.43
39301;BME280;25019;42.626;23.380;2023-04-06T02:23:46;94066.00;;;-1.53;96.81
39301;BME280;25019;42.626;23.380;2023-04-06T02:26:13;94073.25;;;-1.48;95.96
39301;BME280;25019;42.626;23.380;2023-04-06T02:28:39;94006.41;;;-1.93;96.22
39301;BME280;25019;42.626;23.380;2023-04-06T02:31:05;94079.09;;;-1.46;95.92
39301;BME280;25019;42.626;23.380;2023-04-06T02:33:31;93955.34;;;-2.24;95.87
39301;BME280;25019;42.626;23.380;2023-04-06T02:35:56;94077.81;;;-1.36;95.79
39301;BME280;25019;42.626;23.380;2023-04-06T02:38:22;94080.44;;;-1.36;95.63
39301;BME280;25019;42.626;23.380;2023-04-06T02:40:51;94036.91;;;-1.57;95.26
39301;BME280;25019;42.626;23.380;2023-04-06T02:43:24;94056.00;;;-1.49;95.54
39301;BME280;25019;42.626;23.380;2023-04-06T02:45:56;94068.16;;;-1.42;95.42
39301;BME280;25019;42.626;23.380;2023-04-06T02:48:24;94044.63;;;-1.63;95.82
39301;BME280;25019;42.626;23.380;2023-04-06T02:50:49;94064.09;;;-1.44;96.10
39301;BME280;25019;42.626;23.380;2023-04-06T02:53:15;94071.38;;;-1.40;95.74
39301;BME280;25019;42.626;23.380;2023-04-06T02:55:41;93956.69;;;-2.13;96.07
39301;BME280;25019;42.626;23.380;2023-04-06T02:58:07;94081.81;;;-1.40;95.36
39301;BME280;25019;42.626;23.380;2023-04-06T03:00:42;94061.13;;;-1.41;95.88
39301;BME280;25019;42.626;23.380;2023-04-06T03:03:08;93995.63;;;-1.90;95.37
39301;BME280;25019;42.626;23.380;2023-04-06T03:05:34;94070.91;;;-1.43;95.90
39301;BME280;25019;42.626;23.380;2023-04-06T03:08:00;94061.50;;;-1.44;96.30
39301;BME280;25019;42.626;23.380;2023-04-06T03:10:36;94064.72;;;-1.42;95.47
39301;BME280;25019;42.626;23.380;2023-04-06T03:13:01;94067.94;;;-1.40;95.51
39301;BME280;25019;42.626;23.380;2023-04-06T03:15:50;94001.56;;;-1.81;95.50
39301;BME280;25019;42.626;23.380;2023-04-06T03:18:22;94034.75;;;-1.53;96.26
39301;BME280;25019;42.626;23.380;2023-04-06T03:20:52;94065.41;;;-1.33;96.53
39301;BME280;25019;42.626;23.380;2023-04-06T03:23:25;94062.53;;;-1.39;95.99
39301;BME280;25019;42.626;23.380;2023-04-06T03:25:55;94030.53;;;-1.54;96.68
39301;BME280;25019;42.626;23.380;2023-04-06T03:28:24;94052.31;;;-1.40;96.51
39301;BME280;25019;42.626;23.380;2023-04-06T03:30:56;94070.81;;;-1.35;96.16
39301;BME280;25019;42.626;23.380;2023-04-06T03:33:54;94061.13;;;-1.41;96.44
39301;BME280;25019;42.626;23.380;2023-04-06T03:36:28;94058.53;;;-1.41;96.52
39301;BME280;25019;42.626;23.380;2023-04-06T03:38:56;94074.41;;;-1.36;95.83
39301;BME280;25019;42.626;23.380;2023-04-06T03:41:22;93992.31;;;-1.84;96.27
39301;BME280;25019;42.626;23.380;2023-04-06T03:43:55;94054.59;;;-1.52;95.52
39301;BME280;25019;42.626;23.380;2023-04-06T03:46:21;94074.22;;;-1.34;95.38
39301;BME280;25019;42.626;23.380;2023-04-06T03:48:51;94071.44;;;-1.33;95.24
39301;BME280;25019;42.626;23.380;2023-04-06T03:51:19;94047.66;;;-1.45;95.56
39301;BME280;25019;42.626;23.380;2023-04-06T03:53:46;94055.34;;;-1.37;95.39
39301;BME280;25019;42.626;23.380;2023-04-06T03:56:12;94068.28;;;-1.28;94.79
39301;BME280;25019;42.626;23.380;2023-04-06T03:58:38;94062.53;;;-1.24;94.29
39301;BME280;25019;42.626;23.380;2023-04-06T04:01:04;94063.16;;;-1.22;94.12
39301;BME280;25019;42.626;23.380;2023-04-06T04:03:30;94012.47;;;-1.56;94.31
39301;BME280;25019;42.626;23.380;2023-04-06T04:05:55;94058.44;;;-1.33;93.83
39301;BME280;25019;42.626;23.380;2023-04-06T04:08:24;94066.13;;;-1.25;93.29
39301;BME280;25019;42.626;23.380;2023-04-06T04:10:50;94036.50;;;-1.39;93.28
39301;BME280;25019;42.626;23.380;2023-04-06T04:13:16;94061.63;;;-1.16;92.96
39301;BME280;25019;42.626;23.380;2023-04-06T04:15:46;94078.69;;;-1.13;93.21
39301;BME280;25019;42.626;23.380;2023-04-06T04:18:13;94071.06;;;-1.15;93.30
39301;BME280;25019;42.626;23.380;2023-04-06T04:20:39;94065.09;;;-1.09;92.98
39301;BME280;25019;42.626;23.380;2023-04-06T04:23:05;94071.66;;;-0.98;92.90
39301;BME280;25019;42.626;23.380;2023-04-06T04:25:32;94072.69;;;-0.92;92.24
39301;BME280;25019;42.626;23.380;2023-04-06T04:27:58;94071.16;;;-0.86;92.24
39301;BME280;25019;42.626;23.380;2023-04-06T04:30:24;94057.94;;;-0.85;92.05
39301;BME280;25019;42.626;23.380;2023-04-06T04:32:50;94066.81;;;-0.79;90.92
39301;BME280;25019;42.626;23.380;2023-04-06T04:35:19;93968.06;;;-1.47;90.73
39301;BME280;25019;42.626;23.380;2023-04-06T04:37:45;94072.03;;;-0.79;90.25
39301;BME280;25019;42.626;23.380;2023-04-06T04:40:11;94072.50;;;-0.69;90.27
39301;BME280;25019;42.626;23.380;2023-04-06T04:43:00;94068.47;;;-0.71;89.74
39301;BME280;25019;42.626;23.380;2023-04-06T04:45:32;94077.13;;;-0.71;90.12
39301;BME280;25019;42.626;23.380;2023-04-06T04:48:05;94071.91;;;-0.71;90.24
39301;BME280;25019;42.626;23.380;2023-04-06T04:50:52;94069.16;;;-0.63;89.63
39301;BME280;25019;42.626;23.380;2023-04-06T04:53:25;94063.00;;;-0.55;89.77
39301;BME280;25019;42.626;23.380;2023-04-06T04:55:55;94053.34;;;-0.61;88.49
39301;BME280;25019;42.626;23.380;2023-04-06T04:58:22;94070.91;;;-0.48;88.03
39301;BME280;25019;42.626;23.380;2023-04-06T05:00:52;94075.44;;;-0.35;87.84
39301;BME280;25019;42.626;23.380;2023-04-06T05:03:23;94072.97;;;-0.15;87.03
39301;BME280;25019;42.626;23.380;2023-04-06T05:05:59;94004.16;;;-0.36;86.50
39301;BME280;25019;42.626;23.380;2023-04-06T05:08:29;94068.41;;;0.29;84.88
39301;BME280;25019;42.626;23.380;2023-04-06T05:10:55;94068.09;;;0.39;83.34
39301;BME280;25019;42.626;23.380;2023-04-06T05:13:21;94060.88;;;0.41;82.65
39301;BME280;25019;42.626;23.380;2023-04-06T05:15:49;94077.44;;;0.62;81.71
39301;BME280;25019;42.626;23.380;2023-04-06T05:18:25;94028.91;;;0.39;81.18
39301;BME280;25019;42.626;23.380;2023-04-06T05:20:51;94047.69;;;0.63;81.44
39301;BME280;25019;42.626;23.380;2023-04-06T05:23:20;94064.94;;;1.26;80.72
39301;BME280;25019;42.626;23.380;2023-04-06T05:25:46;94073.06;;;1.78;79.99
39301;BME280;25019;42.626;23.380;2023-04-06T05:28:19;94069.84;;;2.03;76.45
39301;BME280;25019;42.626;23.380;2023-04-06T05:30:45;94076.69;;;2.17;74.34
39301;BME280;25019;42.626;23.380;2023-04-06T05:33:12;94042.28;;;1.67;75.83
39301;BME280;25019;42.626;23.380;2023-04-06T05:36:07;94079.31;;;1.84;76.25
39301;BME280;25019;42.626;23.380;2023-04-06T05:38:36;94076.88;;;1.55;76.62
39301;BME280;25019;42.626;23.380;2023-04-06T05:41:12;94019.03;;;0.89;78.01
39301;BME280;25019;42.626;23.380;2023-04-06T05:43:40;94071.63;;;1.22;79.65
39301;BME280;25019;42.626;23.380;2023-04-06T05:46:05;94072.19;;;1.10;79.36
39301;BME280;25019;42.626;23.380;2023-04-06T05:48:31;94065.66;;;0.86;79.68
39301;BME280;25019;42.626;23.380;2023-04-06T05:50:57;94072.59;;;0.58;81.01
39301;BME280;25019;42.626;23.380;2023-04-06T05:53:31;94069.69;;;0.40;82.20
39301;BME280;25019;42.626;23.380;2023-04-06T05:56:02;94068.66;;;0.34;83.31
39301;BME280;25019;42.626;23.380;2023-04-06T05:58:29;94062.41;;;0.28;83.51
39301;BME280;25019;42.626;23.380;2023-04-06T06:00:59;94001.31;;;-0.06;83.49
39301;BME280;25019;42.626;23.380;2023-04-06T06:03:31;94038.84;;;0.22;84.54
39301;BME280;25019;42.626;23.380;2023-04-06T06:06:01;93920.56;;;-0.49;84.08
39301;BME280;25019;42.626;23.380;2023-04-06T06:08:33;94005.44;;;0.10;84.71
39301;BME280;25019;42.626;23.380;2023-04-06T06:11:02;93998.09;;;0.27;83.68
39301;BME280;25019;42.626;23.380;2023-04-06T06:13:27;94064.16;;;0.63;83.11
39301;BME280;25019;42.626;23.380;2023-04-06T06:15:54;93995.84;;;0.18;83.63
39301;BME280;25019;42.626;23.380;2023-04-06T06:18:21;94036.41;;;0.55;83.74
39301;BME280;25019;42.626;23.380;2023-04-06T06:20:50;94007.56;;;0.35;83.20
39301;BME280;25019;42.626;23.380;2023-04-06T06:23:16;93931.34;;;-0.24;83.47
39301;BME280;25019;42.626;23.380;2023-04-06T06:25:42;94061.16;;;0.59;84.02
39301;BME280;25019;42.626;23.380;2023-04-06T06:28:08;94043.09;;;0.23;84.63
39301;BME280;25019;42.626;23.380;2023-04-06T06:30:34;93971.28;;;-0.30;85.85
39301;BME280;25019;42.626;23.380;2023-04-06T06:33:00;94030.59;;;0.18;87.30
39301;BME280;25019;42.626;23.380;2023-04-06T06:35:27;94057.06;;;0.50;86.97
39301;BME280;25019;42.626;23.380;2023-04-06T06:37:53;94044.47;;;0.67;85.68
39301;BME280;25019;42.626;23.380;2023-04-06T06:40:22;94058.78;;;0.71;83.84
39301;BME280;25019;42.626;23.380;2023-04-06T06:42:49;94031.91;;;0.42;83.66
39301;BME280;25019;42.626;23.380;2023-04-06T06:45:39;94050.34;;;0.76;84.09
39301;BME280;25019;42.626;23.380;2023-04-06T06:48:05;94044.53;;;0.81;83.11
39301;BME280;25019;42.626;23.380;2023-04-06T06:50:30;94048.19;;;0.86;81.43
39301;BME280;25019;42.626;23.380;2023-04-06T06:52:56;94052.41;;;0.94;82.55
39301;BME280;25019;42.626;23.380;2023-04-06T06:55:22;94015.13;;;0.65;82.40
39301;BME280;25019;42.626;23.380;2023-04-06T06:57:48;93989.81;;;0.79;82.38
39301;BME280;25019;42.626;23.380;2023-04-06T07:00:14;94053.72;;;1.39;82.35
39301;BME280;25019;42.626;23.380;2023-04-06T07:02:41;94046.06;;;1.37;80.90
39301;BME280;25019;42.626;23.380;2023-04-06T07:05:07;94043.44;;;1.37;82.26
39301;BME280;25019;42.626;23.380;2023-04-06T07:07:33;94045.06;;;1.38;82.34
39301;BME280;25019;42.626;23.380;2023-04-06T07:09:59;93981.41;;;0.97;82.17
39301;BME280;25019;42.626;23.380;2023-04-06T07:12:25;94042.25;;;1.60;81.80
39301;BME280;25019;42.626;23.380;2023-04-06T07:14:51;94041.25;;;1.81;81.18
39301;BME280;25019;42.626;23.380;2023-04-06T07:17:17;94034.41;;;1.80;79.50
39301;BME280;25019;42.626;23.380;2023-04-06T07:19:43;93962.94;;;1.19;80.19
39301;BME280;25019;42.626;23.380;2023-04-06T07:22:09;93989.91;;;1.19;79.00
39301;BME280;25019;42.626;23.380;2023-04-06T07:24:35;93960.72;;;1.02;79.64
39301;BME280;25019;42.626;23.380;2023-04-06T07:27:00;94046.50;;;1.47;80.95
39301;BME280;25019;42.626;23.380;2023-04-06T07:29:27;93985.25;;;1.01;81.30
39301;BME280;25019;42.626;23.380;2023-04-06T07:31:53;94013.06;;;1.23;82.34
39301;BME280;25019;42.626;23.380;2023-04-06T07:34:20;94047.28;;;1.55;79.27
39301;BME280;25019;42.626;23.380;2023-04-06T07:36:46;94032.41;;;1.48;79.26
39301;BME280;25019;42.626;23.380;2023-04-06T07:39:12;94027.16;;;1.55;78.67
39301;BME280;25019;42.626;23.380;2023-04-06T07:41:39;94001.19;;;1.47;79.04
39301;BME280;25019;42.626;23.380;2023-04-06T07:44:05;94044.88;;;1.80;80.54
39301;BME280;25019;42.626;23.380;2023-04-06T07:46:31;94035.41;;;1.86;77.67
39301;BME280;25019;42.626;23.380;2023-04-06T07:48:58;94036.03;;;1.74;78.67
39301;BME280;25019;42.626;23.380;2023-04-06T07:51:27;94038.03;;;1.72;78.04
39301;BME280;25019;42.626;23.380;2023-04-06T07:53:52;94038.22;;;1.57;78.87
39301;BME280;25019;42.626;23.380;2023-04-06T07:56:18;94037.41;;;1.57;79.16
39301;BME280;25019;42.626;23.380;2023-04-06T07:58:44;94044.28;;;1.71;81.08
39301;BME280;25019;42.626;23.380;2023-04-06T08:01:10;94028.75;;;1.70;80.64
39301;BME280;25019;42.626;23.380;2023-04-06T08:03:36;94025.75;;;1.79;80.91
39301;BME280;25019;42.626;23.380;2023-04-06T08:06:02;94032.00;;;1.85;79.95
39301;BME280;25019;42.626;23.380;2023-04-06T08:08:28;93968.56;;;1.36;81.12
39301;BME280;25019;42.626;23.380;2023-04-06T08:10:54;93921.47;;;1.02;81.47
39301;BME280;25019;42.626;23.380;2023-04-06T08:13:20;93980.03;;;1.42;79.81
39301;BME280;25019;42.626;23.380;2023-04-06T08:15:46;94046.88;;;2.05;81.16
39301;BME280;25019;42.626;23.380;2023-04-06T08:18:12;94034.16;;;2.15;79.57
39301;BME280;25019;42.626;23.380;2023-04-06T08:20:39;93966.31;;;1.93;78.94
39301;BME280;25019;42.626;23.380;2023-04-06T08:23:04;93986.22;;;2.01;78.40
39301;BME280;25019;42.626;23.380;2023-04-06T08:25:34;94011.19;;;2.17;77.93
39301;BME280;25019;42.626;23.380;2023-04-06T08:28:01;94034.69;;;2.37;75.76
39301;BME280;25019;42.626;23.380;2023-04-06T08:30:26;93969.28;;;2.04;74.75
39301;BME280;25019;42.626;23.380;2023-04-06T08:32:52;94041.16;;;2.35;76.34
39301;BME280;25019;42.626;23.380;2023-04-06T08:35:18;94034.13;;;2.29;75.50
39301;BME280;25019;42.626;23.380;2023-04-06T08:37:44;93949.81;;;1.66;74.76
39301;BME280;25019;42.626;23.380;2023-04-06T08:40:10;94033.16;;;2.09;74.57
39301;BME280;25019;42.626;23.380;2023-04-06T08:42:40;94019.03;;;2.10;75.37
39301;BME280;25019;42.626;23.380;2023-04-06T08:45:09;93963.06;;;1.98;75.60
39301;BME280;25019;42.626;23.380;2023-04-06T08:47:36;93990.22;;;2.17;71.84
39301;BME280;25019;42.626;23.380;2023-04-06T08:50:05;93975.19;;;1.92;72.68
39301;BME280;25019;42.626;23.380;2023-04-06T08:52:32;94049.47;;;2.18;71.94
39301;BME280;25019;42.626;23.380;2023-04-06T08:54:58;94042.44;;;1.99;72.86
39301;BME280;25019;42.626;23.380;2023-04-06T08:57:24;93961.34;;;1.52;72.16
39301;BME280;25019;42.626;23.380;2023-04-06T08:59:51;94024.50;;;2.02;72.74
39301;BME280;25019;42.626;23.380;2023-04-06T09:02:18;94034.78;;;1.97;73.29
39301;BME280;25019;42.626;23.380;2023-04-06T09:04:48;94023.50;;;2.03;73.66
39301;BME280;25019;42.626;23.380;2023-04-06T09:07:15;94019.66;;;2.06;73.10
39301;BME280;25019;42.626;23.380;2023-04-06T09:09:41;94027.91;;;2.16;73.96
39301;BME280;25019;42.626;23.380;2023-04-06T09:12:42;94026.50;;;2.20;73.26
39301;BME280;25019;42.626;23.380;2023-04-06T09:15:18;94029.50;;;2.24;74.02
39301;BME280;25019;42.626;23.380;2023-04-06T09:17:44;94034.31;;;2.34;73.09
39301;BME280;25019;42.626;23.380;2023-04-06T09:20:10;94022.66;;;2.23;72.07
39301;BME280;25019;42.626;23.380;2023-04-06T09:22:39;93941.53;;;1.76;73.07
39301;BME280;25019;42.626;23.380;2023-04-06T09:25:08;94034.88;;;2.49;72.65
39301;BME280;25019;42.626;23.380;2023-04-06T09:27:35;93907.06;;;1.86;71.80
39301;BME280;25019;42.626;23.380;2023-04-06T09:30:06;94030.75;;;2.74;72.06
39301;BME280;25019;42.626;23.380;2023-04-06T09:32:44;93952.03;;;2.42;71.17
39301;BME280;25019;42.626;23.380;2023-04-06T09:35:11;94026.19;;;3.01;69.84
39301;BME280;25019;42.626;23.380;2023-04-06T09:37:36;94028.19;;;3.06;69.10
39301;BME280;25019;42.626;23.380;2023-04-06T09:40:03;94009.16;;;3.17;67.85
39301;BME280;25019;42.626;23.380;2023-04-06T09:42:29;94008.22;;;3.37;68.19
39301;BME280;25019;42.626;23.380;2023-04-06T09:44:55;94015.53;;;3.28;67.18
39301;BME280;25019;42.626;23.380;2023-04-06T09:47:21;94006.59;;;3.36;67.60
39301;BME280;25019;42.626;23.380;2023-04-06T09:49:50;93894.91;;;2.89;67.59
39301;BME280;25019;42.626;23.380;2023-04-06T09:52:19;94006.66;;;3.54;66.42
39301;BME280;25019;42.626;23.380;2023-04-06T09:54:47;93977.34;;;3.32;67.11
39301;BME280;25019;42.626;23.380;2023-04-06T09:57:25;94012.31;;;3.58;66.90
39301;BME280;25019;42.626;23.380;2023-04-06T10:00:05;94004.56;;;3.63;65.23
39301;BME280;25019;42.626;23.380;2023-04-06T10:05:33;94000.47;;;3.74;64.92
39301;BME280;25019;42.626;23.380;2023-04-06T10:08:06;94000.03;;;3.52;64.76
39301;BME280;25019;42.626;23.380;2023-04-06T10:10:34;93984.22;;;3.58;64.89
39301;BME280;25019;42.626;23.380;2023-04-06T10:13:00;94005.81;;;3.60;63.04
39301;BME280;25019;42.626;23.380;2023-04-06T10:15:28;94003.50;;;3.71;63.78
39301;BME280;25019;42.626;23.380;2023-04-06T10:17:55;93898.22;;;3.03;63.18
39301;BME280;25019;42.626;23.380;2023-04-06T10:20:26;94006.66;;;3.54;62.89
39301;BME280;25019;42.626;23.380;2023-04-06T10:23:29;93991.31;;;3.51;64.54
39301;BME280;25019;42.626;23.380;2023-04-06T10:25:57;93988.28;;;3.54;64.80
39301;BME280;25019;42.626;23.380;2023-04-06T10:28:23;93995.16;;;3.81;63.97
39301;BME280;25019;42.626;23.380;2023-04-06T10:30:49;93992.81;;;3.91;63.86
39301;BME280;25019;42.626;23.380;2023-04-06T10:33:21;93972.25;;;4.07;63.44
39301;BME280;25019;42.626;23.380;2023-04-06T10:35:47;93980.41;;;3.98;63.38
39301;BME280;25019;42.626;23.380;2023-04-06T10:38:12;93983.72;;;3.94;62.78
39301;BME280;25019;42.626;23.380;2023-04-06T10:40:45;93994.97;;;3.75;62.03
39301;BME280;25019;42.626;23.380;2023-04-06T10:43:21;93993.91;;;3.83;62.10
39301;BME280;25019;42.626;23.380;2023-04-06T10:45:59;93952.53;;;3.79;61.89
39301;BME280;25019;42.626;23.380;2023-04-06T10:48:40;93951.16;;;3.95;61.09
39301;BME280;25019;42.626;23.380;2023-04-06T10:51:13;93880.44;;;3.30;62.18
39301;BME280;25019;42.626;23.380;2023-04-06T10:53:44;94003.53;;;4.15;62.05
39301;BME280;25019;42.626;23.380;2023-04-06T10:56:11;93995.50;;;4.28;61.47
39301;BME280;25019;42.626;23.380;2023-04-06T10:58:37;93986.91;;;4.70;61.68
39301;BME280;25019;42.626;23.380;2023-04-06T11:01:03;94002.22;;;4.61;59.20
39301;BME280;25019;42.626;23.380;2023-04-06T11:03:30;93996.72;;;4.44;59.82
39301;BME280;25019;42.626;23.380;2023-04-06T11:05:55;93990.81;;;4.49;61.00
39301;BME280;25019;42.626;23.380;2023-04-06T11:08:30;93916.25;;;4.06;60.63
39301;BME280;25019;42.626;23.380;2023-04-06T11:11:13;94011.72;;;4.62;59.55
39301;BME280;25019;42.626;23.380;2023-04-06T11:13:56;93993.06;;;4.64;60.35
39301;BME280;25019;42.626;23.380;2023-04-06T11:18:54;93999.00;;;4.90;58.58
39301;BME280;25019;42.626;23.380;2023-04-06T11:21:37;93985.69;;;4.73;59.98
39301;BME280;25019;42.626;23.380;2023-04-06T11:24:11;93981.84;;;4.87;58.86
39301;BME280;25019;42.626;23.380;2023-04-06T11:26:45;93979.47;;;4.86;58.63
39301;BME280;25019;42.626;23.380;2023-04-06T11:29:12;93965.50;;;5.16;58.10
39301;BME280;25019;42.626;23.380;2023-04-06T11:31:42;93984.56;;;5.53;57.34
39301;BME280;25019;42.626;23.380;2023-04-06T11:34:11;93983.97;;;5.39;56.64
39301;BME280;25019;42.626;23.380;2023-04-06T11:36:40;93920.22;;;4.64;57.35
39301;BME280;25019;42.626;23.380;2023-04-06T11:39:06;93972.78;;;5.02;57.39
39301;BME280;25019;42.626;23.380;2023-04-06T11:41:32;93976.44;;;5.01;58.56
39301;BME280;25019;42.626;23.380;2023-04-06T11:44:01;93975.13;;;5.34;57.74
39301;BME280;25019;42.626;23.380;2023-04-06T11:46:28;93984.84;;;5.21;57.87
39301;BME280;25019;42.626;23.380;2023-04-06T11:48:58;93979.91;;;5.25;57.99
39301;BME280;25019;42.626;23.380;2023-04-06T11:51:25;93975.16;;;5.46;58.23
39301;BME280;25019;42.626;23.380;2023-04-06T11:53:54;93976.34;;;5.19;57.14
39301;BME280;25019;42.626;23.380;2023-04-06T11:56:29;93984.56;;;5.11;57.35
39301;BME280;25019;42.626;23.380;2023-04-06T11:58:55;93978.75;;;5.21;57.61
39301;BME280;25019;42.626;23.380;2023-04-06T12:01:22;93980.59;;;5.20;55.92
39301;BME280;25019;42.626;23.380;2023-04-06T12:03:49;93984.09;;;5.02;57.19
39301;BME280;25019;42.626;23.380;2023-04-06T12:06:14;93986.56;;;4.67;58.29
39301;BME280;25019;42.626;23.380;2023-04-06T12:08:40;93976.97;;;4.72;58.30
39301;BME280;25019;42.626;23.380;2023-04-06T12:11:06;93980.88;;;4.70;58.04
39301;BME280;25019;42.626;23.380;2023-04-06T12:13:31;93978.00;;;4.71;58.44
39301;BME280;25019;42.626;23.380;2023-04-06T12:15:57;93973.91;;;4.75;58.34
39301;BME280;25019;42.626;23.380;2023-04-06T12:18:23;93947.50;;;4.52;58.85
39301;BME280;25019;42.626;23.380;2023-04-06T12:20:49;93980.06;;;4.69;59.29
39301;BME280;25019;42.626;23.380;2023-04-06T12:23:14;93983.13;;;4.85;58.46
39301;BME280;25019;42.626;23.380;2023-04-06T12:25:42;93974.34;;;5.03;58.08
39301;BME280;25019;42.626;23.380;2023-04-06T12:28:08;93980.81;;;4.88;57.77
39301;BME280;25019;42.626;23.380;2023-04-06T12:30:37;93974.78;;;4.69;59.73
39301;BME280;25019;42.626;23.380;2023-04-06T12:33:03;93965.31;;;4.49;59.86
39301;BME280;25019;42.626;23.380;2023-04-06T12:35:29;93974.41;;;4.84;59.45
39301;BME280;25019;42.626;23.380;2023-04-06T12:37:58;93858.97;;;4.15;59.48
39301;BME280;25019;42.626;23.380;2023-04-06T12:40:24;93904.41;;;4.53;59.27
39301;BME280;25019;42.626;23.380;2023-04-06T12:42:49;93899.47;;;4.26;59.11
39301;BME280;25019;42.626;23.380;2023-04-06T12:45:15;93971.03;;;4.77;59.23
39301;BME280;25019;42.626;23.380;2023-04-06T12:47:41;93969.63;;;4.62;58.85
39301;BME280;25019;42.626;23.380;2023-04-06T12:50:07;93967.31;;;4.35;59.73
39301;BME280;25019;42.626;23.380;2023-04-06T12:52:33;93960.53;;;4.28;60.21
39301;BME280;25019;42.626;23.380;2023-04-06T12:55:01;93969.59;;;4.32;59.98
39301;BME280;25019;42.626;23.380;2023-04-06T12:57:27;93958.53;;;4.23;60.43
39301;BME280;25019;42.626;23.380;2023-04-06T12:59:53;93934.81;;;4.11;60.04
39301;BME280;25019;42.626;23.380;2023-04-06T13:02:19;93904.41;;;3.78;60.99
39301;BME280;25019;42.626;23.380;2023-04-06T13:04:48;93937.56;;;3.79;60.92
39301;BME280;25019;42.626;23.380;2023-04-06T13:07:14;93943.63;;;3.98;60.52
39301;BME280;25019;42.626;23.380;2023-04-06T13:09:39;93861.81;;;3.57;60.32